Time;durP1;ratioP1;P1;durP2;ratioP2;P2;SDS_P1;SDS_P2;PMS_P1;PMS_P2;Temp;Humidity;BMP_temperature;BMP_pressure;BME280_temperature;BME280_humidity;BME280_pressure;Samples;Min_cycle;Max_cycle;Signal;HPM_P1;HPM_P2
2022/11/06 08:42:33;;;;;;;;;7.50;5.00;;;;;12.37;64.24;101056.22;3023479;22;45455;-87
2022/11/06 08:43:43;;;;;;;;;3.00;3.00;;;;;12.40;64.62;101057.03;3012946;22;46175;-87
2022/11/06 08:44:53;;;;;;;;;3.75;3.25;;;;;12.40;64.36;101057.03;3016308;22;45096;-86
2022/11/06 08:46:05;;;;;;;;;6.50;5.50;;;;;12.42;64.35;101050.78;3028995;22;45232;-87
2022/11/06 08:47:15;;;;;;;;;6.75;4.50;;;;;12.41;64.21;101062.25;3012877;22;45173;-87
2022/11/06 08:48:26;;;;;;;;;4.00;4.00;;;;;12.39;64.02;101066.72;3018109;22;45331;-85
2022/11/06 08:49:36;;;;;;;;;6.00;5.00;;;;;12.38;63.80;101070.25;3013343;22;45172;-87
2022/11/06 08:50:46;;;;;;;;;3.50;3.50;;;;;12.38;64.21;101070.25;3013357;22;46135;-88
2022/11/06 08:51:57;;;;;;;;;3.75;1.50;;;;;12.34;63.71;101080.06;3013419;22;45137;-87
2022/11/06 08:53:07;;;;;;;;;3.00;3.00;;;;;12.34;64.15;101074.81;3017962;22;46232;-88
2022/11/06 08:54:18;;;;;;;;;3.75;3.00;;;;;12.34;64.46;101072.16;3029266;22;45133;-88
2022/11/06 08:55:38;;;;;;;;;4.00;3.75;;;;;12.36;64.41;101083.50;3029581;22;45185;-87
2022/11/06 08:56:48;;;;;;;;;5.75;5.75;;;;;12.35;64.63;101080.91;3029306;22;44598;-87
2022/11/06 08:57:59;;;;;;;;;4.00;4.00;;;;;12.33;64.72;101078.34;3028344;22;46223;-88
2022/11/06 08:59:10;;;;;;;;;5.50;4.50;;;;;12.35;64.90;101083.53;3012845;22;45300;-88
2022/11/06 09:00:20;;;;;;;;;4.00;4.00;;;;;12.33;64.85;101080.97;3001640;22;47443;-87
2022/11/06 09:01:30;;;;;;;;;5.75;5.50;;;;;12.33;64.60;101077.47;3016965;22;45392;-87
2022/11/06 09:02:41;;;;;;;;;5.25;5.25;;;;;12.31;64.61;101077.53;3011380;22;46881;-87
2022/11/06 09:03:51;;;;;;;;;5.00;4.50;;;;;12.31;64.57;101072.25;3017406;22;45380;-88
2022/11/06 09:05:01;;;;;;;;;6.75;5.25;;;;;12.29;65.15;101074.09;3029357;22;46336;-87
2022/11/06 09:06:12;;;;;;;;;4.25;4.25;;;;;12.29;64.97;101066.19;3012553;22;45101;-87
2022/11/06 09:07:22;;;;;;;;;6.00;4.00;;;;;12.29;64.91;101062.69;3012067;22;48040;-86
2022/11/06 09:08:33;;;;;;;;;6.50;6.50;;;;;12.33;65.55;101072.19;3012382;22;45307;-87
2022/11/06 09:09:43;;;;;;;;;7.00;4.00;;;;;12.35;65.83;101070.38;3001823;22;47065;-86
2022/11/06 09:10:53;;;;;;;;;4.50;3.50;;;;;12.36;65.75;101072.09;3017663;22;45230;-86
2022/11/06 09:12:04;;;;;;;;;5.50;5.00;;;;;12.36;65.73;101067.69;3012040;22;46856;-88
2022/11/06 09:13:15;;;;;;;;;5.50;3.50;;;;;12.35;65.14;101068.59;3017036;22;45153;-86
2022/11/06 09:14:26;;;;;;;;;6.50;4.50;;;;;12.37;65.67;101060.66;3012472;22;47118;-88
2022/11/06 09:15:37;;;;;;;;;4.25;4.25;;;;;12.36;65.58;101059.78;3001894;22;45219;-87
2022/11/06 09:16:48;;;;;;;;;6.50;5.00;;;;;12.36;65.61;101054.50;3016890;22;46323;-87
2022/11/06 09:17:58;;;;;;;;;5.25;5.25;;;;;12.36;66.00;101051.88;3028293;22;45229;-87
2022/11/06 09:19:08;;;;;;;;;4.00;2.75;;;;;12.36;65.92;101051.88;3012486;22;47009;-88
2022/11/06 09:20:20;;;;;;;;;6.25;4.75;;;;;12.37;66.38;101058.03;3017654;22;45445;-86
2022/11/06 09:21:31;;;;;;;;;6.50;6.50;;;;;12.37;66.62;101050.94;3028520;22;46482;-86
2022/11/06 09:22:41;;;;;;;;;7.25;5.50;;;;;12.38;66.46;101043.91;3028859;22;45228;-87
2022/11/06 09:23:52;;;;;;;;;7.00;5.50;;;;;12.36;66.23;101028.16;3012585;22;46887;-86
2022/11/06 09:25:02;;;;;;;;;6.00;6.00;;;;;12.37;66.24;101023.75;3016879;22;45287;-86
2022/11/06 09:26:13;;;;;;;;;8.25;5.50;;;;;12.37;66.56;101013.22;3028213;22;46220;-86
2022/11/06 09:27:24;;;;;;;;;7.75;5.50;;;;;12.35;66.40;101009.75;3028542;22;45546;-86
2022/11/06 09:28:34;;;;;;;;;8.75;5.25;;;;;12.35;66.40;101007.97;3028709;22;46192;-87
2022/11/06 09:29:44;;;;;;;;;4.00;3.25;;;;;12.35;66.22;101007.97;3028821;22;45160;-86
2022/11/06 09:30:54;;;;;;;;;4.75;4.75;;;;;12.33;66.54;100994.00;3028621;22;45543;-86
2022/11/06 09:32:06;;;;;;;;;7.75;6.75;;;;;12.34;65.85;100985.19;3028882;22;44613;-86
2022/11/06 09:33:17;;;;;;;;;5.00;5.00;;;;;12.34;66.37;100985.19;3028644;22;46121;-86
2022/11/06 09:34:27;;;;;;;;;4.25;4.00;;;;;12.33;66.49;100980.81;3028446;22;44546;-86
2022/11/06 09:35:37;;;;;;;;;7.00;7.00;;;;;12.34;66.77;100987.81;3028678;22;45102;-86
2022/11/06 09:36:48;;;;;;;;;7.75;6.75;;;;;12.37;67.19;100985.06;3012607;22;45245;-87
2022/11/06 09:38:07;;;;;;;;;7.75;6.75;;;;;12.38;66.84;100986.78;3017059;22;46347;-87
2022/11/06 09:39:17;;;;;;;;;6.50;6.50;;;;;12.37;67.48;100989.47;3012450;22;44638;-86
2022/11/06 09:40:42;;;;;;;;;7.00;5.75;;;;;12.38;66.64;100999.09;3017352;22;45184;-85
2022/11/06 09:41:55;;;;;;;;;8.25;7.00;;;;;12.35;66.87;100989.53;3028417;22;45207;-83
2022/11/06 09:43:20;;;;;;;;;6.75;6.25;;;;;12.35;66.68;100994.78;3012378;22;48297;-87
2022/11/06 09:44:33;;;;;;;;;8.75;6.50;;;;;12.35;67.06;100984.25;3012200;22;44646;-86
2022/11/06 09:45:46;;;;;;;;;9.00;7.25;;;;;12.34;67.05;100977.28;3012044;22;48080;-86
2022/11/06 09:47:03;;;;;;;;;10.50;7.00;;;;;12.35;67.14;100976.34;3017582;22;45263;-85
2022/11/06 09:48:40;;;;;;;;;8.50;7.50;;;;;12.37;66.82;100979.78;3012303;22;47257;-85
2022/11/06 09:49:53;;;;;;;;;6.25;4.75;;;;;12.36;67.31;100975.44;3013528;22;45263;-85
2022/11/06 09:51:19;;;;;;;;;8.50;7.50;;;;;12.37;67.27;100969.22;3028459;22;45331;-86
2022/11/06 09:52:41;;;;;;;;;6.50;5.50;;;;;12.37;66.96;100974.50;3028962;22;45135;-86
2022/11/06 09:54:19;;;;;;;;;8.00;6.50;;;;;12.38;66.90;100976.22;3028732;22;46375;-85
2022/11/06 09:55:34;;;;;;;;;8.75;8.00;;;;;12.37;67.33;100977.13;3028852;22;45560;-85
2022/11/06 09:56:49;;;;;;;;;8.00;6.75;;;;;12.37;67.43;100966.59;3027895;22;46282;-85
2022/11/06 09:58:10;;;;;;;;;6.50;5.50;;;;;12.39;67.54;100971.84;3028552;22;45227;-85
2022/11/06 09:59:21;;;;;;;;;9.75;7.75;;;;;12.38;67.34;100965.69;3028725;22;45501;-85
2022/11/06 10:00:31;;;;;;;;;7.25;7.25;;;;;12.38;67.42;100956.91;3028828;22;45240;-85
2022/11/06 10:01:48;;;;;;;;;6.50;6.50;;;;;12.38;67.39;100955.16;3028715;22;45298;-85
2022/11/06 10:03:07;;;;;;;;;8.00;6.50;;;;;12.40;67.24;100954.22;3028613;22;45097;-85
2022/11/06 10:04:44;;;;;;;;;7.00;6.50;;;;;12.42;67.84;100955.03;3027768;22;46629;-85
2022/11/06 10:05:55;;;;;;;;;9.00;8.25;;;;;12.38;67.87;100960.41;3028548;22;45220;-84
2022/11/06 10:07:19;;;;;;;;;9.50;9.50;;;;;12.40;67.72;100956.84;3028651;22;46316;-85
2022/11/06 10:08:29;;;;;;;;;13.00;9.00;;;;;12.38;67.63;100960.41;3012320;22;45307;-85
2022/11/06 10:09:40;;;;;;;;;9.50;8.25;;;;;12.41;67.46;100961.22;3017214;22;45717;-85
2022/11/06 10:11:12;;;;;;;;;9.25;8.25;;;;;12.40;67.55;100960.34;3028587;22;45305;-84
2022/11/06 10:12:30;;;;;;;;;10.00;8.25;;;;;12.37;67.28;100957.84;3028300;22;45330;-85
2022/11/06 10:14:01;;;;;;;;;9.00;8.75;;;;;12.37;67.59;100963.97;3012340;22;45331;-85
2022/11/06 10:15:26;;;;;;;;;12.00;8.75;;;;;12.37;67.83;100966.59;3021307;22;46146;-84
2022/11/06 10:16:43;;;;;;;;;9.00;9.00;;;;;12.36;67.32;100969.31;3012238;22;45239;-85
2022/11/06 10:18:22;;;;;;;;;11.75;8.75;;;;;12.32;67.34;100963.25;3018729;22;45404;-85
2022/11/06 10:19:39;;;;;;;;;9.25;8.50;;;;;12.31;67.54;100958.94;3028863;22;45175;-84
2022/11/06 10:20:57;;;;;;;;;12.00;8.00;;;;;12.31;67.54;100961.56;3012136;22;47871;-85
2022/11/06 10:22:24;;;;;;;;;10.25;9.00;;;;;12.31;67.67;100955.44;3018847;22;45384;-85
2022/11/06 10:23:48;;;;;;;;;9.50;7.50;;;;;12.31;67.59;100952.78;3029132;22;46609;-84
2022/11/06 10:25:19;;;;;;;;;9.25;8.75;;;;;12.32;67.97;100960.63;3029377;22;44557;-84
2022/11/06 10:26:40;;;;;;;;;11.50;8.75;;;;;12.33;67.36;100959.72;3028816;22;46199;-85
2022/11/06 10:27:58;;;;;;;;;10.50;9.75;;;;;12.33;67.86;100961.50;3028974;22;45362;-85
2022/11/06 10:29:23;;;;;;;;;8.75;7.50;;;;;12.34;67.76;100960.59;3029323;22;46289;-84
2022/11/06 10:30:54;;;;;;;;;8.75;7.50;;;;;12.33;67.76;100961.50;3011669;22;45196;-84
2022/11/06 10:32:14;;;;;;;;;8.75;7.50;;;;;12.35;68.21;100955.25;3021910;22;45176;-84
2022/11/06 10:33:45;;;;;;;;;8.25;7.75;;;;;12.34;68.26;100947.41;3012161;22;45303;-84
2022/11/06 10:35:07;;;;;;;;;8.50;7.50;;;;;12.36;68.25;100949.06;3006926;22;47251;-84
2022/11/06 10:36:25;;;;;;;;;8.00;7.50;;;;;12.38;68.01;100960.41;3020431;22;45242;-84
2022/11/06 10:38:02;;;;;;;;;9.25;8.50;;;;;12.38;68.44;100965.69;3027401;22;46209;-84
2022/11/06 10:39:24;;;;;;;;;10.00;8.00;;;;;12.37;68.17;100969.22;3027805;22;45331;-84
2022/11/06 10:40:35;;;;;;;;;8.25;7.25;;;;;12.37;68.18;100969.22;3028466;22;46446;-85
2022/11/06 10:41:53;;;;;;;;;11.75;10.75;;;;;12.37;68.37;100971.88;3028167;22;45103;-85
2022/11/06 10:43:42;;;;;;;;;9.00;8.25;;;;;12.38;68.20;100980.66;3012895;22;47399;-86
2022/11/06 10:45:01;;;;;;;;;11.00;9.50;;;;;12.37;68.12;100978.94;3025699;22;45339;-85
2022/11/06 10:46:23;;;;;;;;;10.75;9.25;;;;;12.38;68.53;100970.97;3027878;22;45389;-86
2022/11/06 10:47:39;;;;;;;;;9.75;9.75;;;;;12.41;68.55;100975.25;3012084;22;44646;-86
2022/11/06 10:49:01;;;;;;;;;11.00;7.50;;;;;12.41;68.54;100970.00;3019158;22;45435;-85
2022/11/06 10:50:15;;;;;;;;;8.75;8.25;;;;;12.41;68.17;100959.44;3028760;22;45385;-87
2022/11/06 10:51:46;;;;;;;;;7.25;6.50;;;;;12.44;68.39;100966.38;3028327;22;45409;-84
2022/11/06 10:53:04;;;;;;;;;14.75;10.25;;;;;12.43;68.76;100964.66;3028334;22;44646;-84
2022/11/06 10:54:37;;;;;;;;;8.25;8.25;;;;;12.46;68.69;100968.06;3012451;22;47162;-85
2022/11/06 10:56:15;;;;;;;;;13.75;11.25;;;;;12.46;68.64;100959.28;3022915;22;45100;-86
2022/11/06 10:58:02;;;;;;;;;12.00;10.25;;;;;12.47;68.75;100959.22;3011907;22;47074;-85
2022/11/06 10:59:14;;;;;;;;;18.25;13.25;;;;;12.48;68.41;100954.81;2965003;23;45305;-84
2022/11/06 11:00:24;;;;;;;;;13.00;12.25;;;;;12.46;68.48;100946.09;3025615;22;45113;-85
2022/11/06 11:01:37;;;;;;;;;17.00;16.25;;;;;12.46;68.82;100940.81;3028007;22;45167;-85
2022/11/06 11:02:51;;;;;;;;;16.25;13.50;;;;;12.46;68.82;100931.16;3027738;22;45242;-84
2022/11/06 11:04:02;;;;;;;;;12.25;10.50;;;;;12.46;69.01;100925.00;3028000;22;45345;-85
2022/11/06 11:05:16;;;;;;;;;14.50;11.75;;;;;12.45;68.64;100918.00;3012333;22;46162;-86
2022/11/06 11:06:26;;;;;;;;;15.25;12.75;;;;;12.46;68.81;100922.38;3012244;22;44573;-86
2022/11/06 11:07:37;;;;;;;;;26.75;19.00;;;;;12.45;68.79;100918.88;3017194;22;45176;-85
2022/11/06 11:08:49;;;;;;;;;21.50;17.00;;;;;12.45;68.65;100910.97;3029021;22;45159;-85
2022/11/06 11:10:22;;;;;;;;;13.00;13.00;;;;;12.43;68.60;100909.28;3012737;22;46251;-85
2022/11/06 11:11:33;;;;;;;;;19.50;14.75;;;;;12.42;68.95;100910.22;3019887;22;45375;-85
2022/11/06 11:12:44;;;;;;;;;18.00;16.25;;;;;12.42;68.83;100908.44;3026383;22;45233;-86
2022/11/06 11:13:54;;;;;;;;;13.75;11.75;;;;;12.41;68.75;100908.50;3028428;22;44549;-85
2022/11/06 11:15:13;;;;;;;;;18.25;16.25;;;;;12.42;68.93;100915.50;3026940;22;46379;-86
2022/11/06 11:16:27;;;;;;;;;14.25;13.75;;;;;12.40;68.79;100925.22;3026906;22;45369;-83
2022/11/06 11:17:40;;;;;;;;;13.75;12.00;;;;;12.39;69.05;100919.13;3010365;22;47233;-86
2022/11/06 11:18:51;;;;;;;;;12.50;12.00;;;;;12.38;69.17;100928.78;3015667;22;45356;-85
2022/11/06 11:20:02;;;;;;;;;3.00;1.00;;;;;12.38;69.05;100927.94;3026685;22;46192;-85
2022/11/06 11:21:12;;;;;;;;;14.50;11.50;;;;;12.42;69.46;100923.41;3026908;22;44711;-85
2022/11/06 11:22:23;;;;;;;;;14.00;12.50;;;;;12.43;69.26;100927.75;3026562;22;46619;-83
2022/11/06 11:23:33;;;;;;;;;12.75;12.50;;;;;12.43;69.06;100925.13;3027009;22;44628;-84
2022/11/06 11:25:07;;;;;;;;;17.25;16.00;;;;;12.43;69.21;100904.03;3026632;22;45219;-84
2022/11/06 11:26:23;;;;;;;;;11.25;11.25;;;;;12.45;68.87;100916.22;3026766;22;45236;-84
2022/11/06 11:27:43;;;;;;;;;13.25;10.75;;;;;12.43;69.44;100914.56;3026575;22;46859;-86
2022/11/06 11:28:56;;;;;;;;;14.25;13.00;;;;;12.45;68.98;100912.72;3026967;22;45364;-85
2022/11/06 11:30:19;;;;;;;;;14.25;13.00;;;;;12.46;69.28;100922.38;3027855;22;46584;-84
2022/11/06 11:31:33;;;;;;;;;13.75;13.00;;;;;12.44;69.21;100914.53;3026926;22;44695;-83
2022/11/06 11:32:43;;;;;;;;;16.50;13.75;;;;;12.45;69.21;100907.44;3026255;22;46480;-81
2022/11/06 11:33:57;;;;;;;;;14.25;13.25;;;;;12.42;68.81;100904.97;3026439;22;45436;-83
2022/11/06 11:35:10;;;;;;;;;17.50;17.50;;;;;12.41;69.04;100905.88;3026691;22;45551;-84
2022/11/06 11:36:20;;;;;;;;;27.75;23.50;;;;;12.42;69.00;100904.97;3026063;22;45280;-84
2022/11/06 11:37:32;;;;;;;;;20.75;20.25;;;;;12.40;69.06;100897.09;3010419;22;46188;-83
2022/11/06 11:38:43;;;;;;;;;18.50;15.50;;;;;12.43;68.98;100896.13;3017212;22;45266;-84
2022/11/06 11:39:53;;;;;;;;;17.25;15.25;;;;;12.43;69.37;100893.47;3027849;22;45677;-84
2022/11/06 11:41:07;;;;;;;;;18.50;17.75;;;;;12.43;69.35;100888.22;3028831;22;45188;-84
2022/11/06 11:42:21;;;;;;;;;21.00;16.75;;;;;12.45;69.54;100891.63;3027453;22;45377;-85
2022/11/06 11:43:32;;;;;;;;;15.75;13.00;;;;;12.46;69.41;100885.47;3029124;22;45113;-84
2022/11/06 11:44:42;;;;;;;;;17.75;15.50;;;;;12.45;69.06;100881.97;3028870;22;45919;-83
2022/11/06 11:46:08;;;;;;;;;16.25;15.75;;;;;12.48;69.47;100876.56;3028501;22;45162;-83
2022/11/06 11:47:22;;;;;;;;;14.00;14.00;;;;;12.49;69.64;100869.53;3028812;22;45376;-83
2022/11/06 11:48:44;;;;;;;;;17.50;15.00;;;;;12.49;69.35;100859.81;3028900;22;45281;-83
2022/11/06 11:49:54;;;;;;;;;12.75;11.25;;;;;12.48;69.50;100857.25;3028635;22;46313;-83
2022/11/06 11:51:28;;;;;;;;;18.75;15.75;;;;;12.50;69.48;100855.41;3029046;22;45230;-83
2022/11/06 11:52:38;;;;;;;;;15.50;14.75;;;;;12.49;69.38;100851.06;3029005;22;45409;-83
2022/11/06 11:53:50;;;;;;;;;15.50;14.00;;;;;12.51;69.31;100849.22;3029088;22;45227;-84
2022/11/06 11:55:00;;;;;;;;;13.50;12.00;;;;;12.50;69.50;100844.88;3028841;22;45466;-82
2022/11/06 11:56:18;;;;;;;;;11.00;11.00;;;;;12.50;69.59;100842.22;3012307;22;45192;-83
2022/11/06 11:57:28;;;;;;;;;15.25;14.00;;;;;12.52;68.96;100843.03;3018521;22;45310;-83
2022/11/06 11:58:38;;;;;;;;;17.00;16.00;;;;;12.50;69.28;100844.88;3012877;22;45248;-82
2022/11/06 12:00:05;;;;;;;;;14.00;13.25;;;;;12.49;69.52;100824.72;3016908;22;46254;-82
2022/11/06 12:01:15;;;;;;;;;10.50;10.50;;;;;12.50;69.39;100831.69;3028732;22;45149;-83
2022/11/06 12:02:25;;;;;;;;;20.25;11.75;;;;;12.53;69.50;100839.47;3028891;22;45329;-83
2022/11/06 12:03:48;;;;;;;;;12.00;10.50;;;;;12.53;69.66;100834.22;3028923;22;44539;-83
2022/11/06 12:05:23;;;;;;;;;10.50;10.50;;;;;12.57;69.56;100834.94;3029026;22;46085;-83
2022/11/06 12:06:34;;;;;;;;;13.00;10.25;;;;;12.57;69.42;100824.38;3029124;22;44703;-83
2022/11/06 12:07:51;;;;;;;;;14.00;12.00;;;;;12.59;69.40;100828.69;3028714;22;46224;-83
2022/11/06 12:09:03;;;;;;;;;14.75;13.50;;;;;12.58;69.49;100819.06;3029281;22;45322;-82
2022/11/06 12:10:30;;;;;;;;;13.00;10.75;;;;;12.57;69.19;100822.59;3028693;22;45577;-83
2022/11/06 12:11:42;;;;;;;;;14.00;12.00;;;;;12.57;69.34;100816.47;3028721;22;45266;-83
2022/11/06 12:12:54;;;;;;;;;12.50;11.75;;;;;12.59;69.20;100826.03;3027362;22;45401;-82
2022/11/06 12:14:20;;;;;;;;;11.75;11.75;;;;;12.59;69.75;100825.22;3028599;22;45164;-83
2022/11/06 12:15:52;;;;;;;;;15.50;12.25;;;;;12.58;69.34;100819.06;3028462;22;45803;-83
2022/11/06 12:17:18;;;;;;;;;15.50;12.00;;;;;12.57;69.37;100816.47;3029523;22;45364;-83
2022/11/06 12:18:39;;;;;;;;;13.25;11.25;;;;;12.56;69.19;100818.28;3029008;22;46134;-83
2022/11/06 12:19:57;;;;;;;;;13.25;11.75;;;;;12.57;69.86;100819.97;3028651;22;44699;-83
2022/11/06 12:21:20;;;;;;;;;13.25;13.25;;;;;12.58;69.29;100813.78;3028265;22;46125;-82
2022/11/06 12:22:36;;;;;;;;;16.75;13.00;;;;;12.63;69.72;100810.97;3029105;22;45264;-83
2022/11/06 12:23:55;;;;;;;;;16.00;13.00;;;;;12.64;69.09;100806.56;3028851;22;46281;-83
2022/11/06 12:25:40;;;;;;;;;13.50;11.25;;;;;12.67;69.51;100803.78;3029000;22;45251;-82
2022/11/06 12:26:50;;;;;;;;;16.00;14.50;;;;;12.67;69.27;100802.00;3021129;22;45331;-83
2022/11/06 12:28:03;;;;;;;;;14.50;12.00;;;;;12.65;69.73;100790.66;3012522;22;45122;-83
2022/11/06 12:29:18;;;;;;;;;15.75;12.75;;;;;12.66;69.28;100799.44;3017973;22;45430;-82
2022/11/06 12:30:32;;;;;;;;;9.75;9.50;;;;;12.65;69.18;100795.06;3028761;22;44582;-86
2022/11/06 12:32:01;;;;;;;;;12.25;9.25;;;;;12.63;68.99;100786.38;3012192;22;47150;-84
2022/11/06 12:33:26;;;;;;;;;12.25;11.25;;;;;12.59;69.20;100786.50;3005777;22;45280;-83
2022/11/06 12:35:02;;;;;;;;;9.50;9.50;;;;;12.60;69.41;100795.25;3020650;22;45361;-83
2022/11/06 12:36:18;;;;;;;;;8.50;8.25;;;;;12.58;69.30;100794.47;3028485;22;45349;-83
2022/11/06 12:38:06;;;;;;;;;10.00;10.00;;;;;12.59;69.48;100790.94;3028839;22;46256;-84
2022/11/06 12:39:26;;;;;;;;;12.50;12.25;;;;;12.57;69.27;100787.47;3028658;22;45047;-83
2022/11/06 12:40:39;;;;;;;;;10.75;10.75;;;;;12.56;69.53;100789.28;3028879;22;46303;-83
2022/11/06 12:41:53;;;;;;;;;11.25;7.75;;;;;12.55;68.91;100782.28;3027939;22;45256;-84
2022/11/06 12:43:18;;;;;;;;;11.25;11.25;;;;;12.53;69.49;100778.84;3028408;22;46397;-83
2022/11/06 12:44:28;;;;;;;;;14.25;11.75;;;;;12.52;69.52;100773.66;3028912;22;45215;-83
2022/11/06 12:46:10;;;;;;;;;13.00;13.00;;;;;12.52;69.70;100768.38;3028595;22;46212;-84
2022/11/06 12:47:20;;;;;;;;;11.75;11.75;;;;;12.54;69.38;100766.53;3029038;22;45100;-83
2022/11/06 12:48:30;;;;;;;;;14.75;12.75;;;;;12.52;69.43;100761.28;3028827;22;45309;-83
2022/11/06 12:50:11;;;;;;;;;14.75;12.50;;;;;12.53;69.34;100762.16;3028887;22;45243;-84
2022/11/06 12:51:54;;;;;;;;;10.50;10.50;;;;;12.52;69.84;100758.66;3028265;22;45436;-83
2022/11/06 12:53:28;;;;;;;;;14.75;13.75;;;;;12.52;69.69;100756.03;3029216;22;44541;-84
2022/11/06 12:54:57;;;;;;;;;11.00;10.00;;;;;12.55;70.03;100757.69;3028211;22;45277;-84
2022/11/06 12:56:21;;;;;;;;;14.00;13.00;;;;;12.55;69.73;100760.31;3028549;22;45226;-84
2022/11/06 12:57:50;;;;;;;;;13.50;10.50;;;;;12.55;69.62;100757.69;3028256;22;45397;-83
2022/11/06 12:59:11;;;;;;;;;12.50;10.50;;;;;12.51;69.77;100753.47;3028706;22;44664;-83
2022/11/06 13:00:26;;;;;;;;;12.00;12.00;;;;;12.52;69.75;100750.75;3028442;22;46536;-84
2022/11/06 13:01:54;;;;;;;;;15.00;13.50;;;;;12.52;69.99;100749.91;3012803;22;44602;-84
2022/11/06 13:03:07;;;;;;;;;7.50;7.50;;;;;12.56;70.03;100747.09;3021055;22;46709;-83
2022/11/06 13:04:33;;;;;;;;;12.75;12.50;;;;;12.59;69.86;100739.03;3028119;22;45192;-83
2022/11/06 13:05:58;;;;;;;;;9.50;8.75;;;;;12.64;70.09;100738.00;3028650;22;45372;-84
2022/11/06 13:07:27;;;;;;;;;14.25;11.75;;;;;12.68;70.23;100742.22;3028835;22;44545;-83
2022/11/06 13:09:10;;;;;;;;;14.75;13.25;;;;;12.72;70.16;100741.16;3028449;22;46199;-83
2022/11/06 13:10:30;;;;;;;;;12.75;11.75;;;;;12.73;69.88;100721.78;3028821;22;45226;-82
2022/11/06 13:12:05;;;;;;;;;10.75;8.75;;;;;12.79;70.07;100726.78;3028624;22;45630;-84
2022/11/06 13:13:36;;;;;;;;;10.00;10.00;;;;;12.85;70.09;100735.38;3028519;22;44681;-84
2022/11/06 13:15:15;;;;;;;;;16.50;14.25;;;;;12.92;70.01;100732.41;3012896;22;47964;-86
2022/11/06 13:16:26;;;;;;;;;14.75;12.00;;;;;12.98;69.73;100731.28;3024555;22;45226;-83
2022/11/06 13:18:01;;;;;;;;;14.00;12.00;;;;;13.02;69.74;100735.50;3012487;22;47572;-82
2022/11/06 13:19:32;;;;;;;;;11.00;10.25;;;;;13.11;69.77;100733.41;3022460;22;45273;-84
2022/11/06 13:20:54;;;;;;;;;13.50;12.25;;;;;13.18;69.55;100731.34;3028828;22;46415;-82
2022/11/06 13:22:15;;;;;;;;;8.75;7.75;;;;;13.21;69.38;100725.94;3027308;22;45562;-84
2022/11/06 13:23:36;;;;;;;;;12.25;10.00;;;;;13.28;69.24;100716.81;3028978;22;45462;-83
2022/11/06 13:25:06;;;;;;;;;16.50;12.00;;;;;13.35;69.23;100714.75;3027277;22;45212;-83
2022/11/06 13:26:44;;;;;;;;;12.25;11.25;;;;;13.44;68.99;100716.09;3027439;22;46815;-84
2022/11/06 13:28:05;;;;;;;;;12.50;10.75;;;;;13.48;69.23;100707.97;3011367;22;45273;-84
2022/11/06 13:29:20;;;;;;;;;8.50;6.00;;;;;13.56;68.78;100712.03;3019790;22;45369;-83
2022/11/06 13:30:35;;;;;;;;;15.50;13.75;;;;;13.61;68.95;100710.06;3028067;22;45275;-85
2022/11/06 13:31:52;;;;;;;;;10.25;8.75;;;;;13.69;68.94;100712.38;3027619;22;45461;-84
2022/11/06 13:33:07;;;;;;;;;12.25;10.50;;;;;13.75;68.59;100711.22;3011857;22;45415;-84
2022/11/06 13:34:25;;;;;;;;;10.00;9.25;;;;;13.83;68.54;100709.06;3016818;22;46417;-84
2022/11/06 13:35:38;;;;;;;;;8.00;8.00;;;;;13.90;68.01;100713.13;3027550;22;45251;-84
2022/11/06 13:36:50;;;;;;;;;11.75;9.75;;;;;13.94;67.81;100714.72;3011561;22;48111;-85
2022/11/06 13:38:04;;;;;;;;;11.00;9.00;;;;;13.97;67.50;100707.56;3016622;22;45288;-84
2022/11/06 13:39:30;;;;;;;;;11.50;9.25;;;;;14.03;67.34;100712.53;3027365;22;45441;-84
2022/11/06 13:40:44;;;;;;;;;8.25;8.00;;;;;14.01;67.49;100703.84;3026585;22;44719;-84
2022/11/06 13:41:56;;;;;;;;;11.00;9.50;;;;;13.99;67.19;100703.91;3027533;22;45431;-84
2022/11/06 13:43:16;;;;;;;;;13.75;10.00;;;;;13.97;67.38;100710.22;3028112;22;45157;-83
2022/11/06 13:44:28;;;;;;;;;8.00;7.75;;;;;13.94;67.45;100704.16;3027735;22;45218;-84
2022/11/06 13:45:48;;;;;;;;;11.00;11.00;;;;;13.95;67.52;100708.47;3029123;22;45144;-84
2022/11/06 13:47:14;;;;;;;;;11.75;9.50;;;;;13.91;67.36;100709.56;3028424;22;46108;-84
2022/11/06 13:48:45;;;;;;;;;11.50;8.75;;;;;13.92;67.42;100707.78;3028441;22;45220;-84
2022/11/06 13:50:07;;;;;;;;;8.50;7.75;;;;;13.89;67.63;100700.88;3028516;22;45526;-83
2022/11/06 13:51:28;;;;;;;;;8.25;8.25;;;;;13.93;67.24;100705.06;3012239;22;45199;-84
2022/11/06 13:52:48;;;;;;;;;9.75;9.75;;;;;13.93;67.45;100707.69;3019516;22;45632;-84
2022/11/06 13:54:13;;;;;;;;;13.75;9.75;;;;;13.94;67.33;100701.50;3028369;22;45226;-84
2022/11/06 13:55:30;;;;;;;;;10.50;7.75;;;;;13.97;66.98;100707.56;3028334;22;45255;-84
2022/11/06 13:56:56;;;;;;;;;10.00;8.50;;;;;13.98;66.71;100706.63;3010686;22;45318;-84
2022/11/06 13:58:44;;;;;;;;;11.00;9.50;;;;;13.97;66.93;100707.56;3017658;22;46462;-84
2022/11/06 14:00:21;;;;;;;;;12.00;10.00;;;;;13.96;67.25;100693.50;3028690;22;45219;-84
2022/11/06 14:01:55;;;;;;;;;10.25;10.00;;;;;13.96;66.89;100690.84;3012146;22;46289;-84
2022/11/06 14:03:36;;;;;;;;;16.00;14.25;;;;;13.94;66.91;100688.28;2948385;22;44742;-84
2022/11/06 14:05:10;;;;;;;;;13.75;13.25;;;;;13.91;66.90;100688.44;3023727;22;46787;-84
2022/11/06 14:06:23;;;;;;;;;10.00;9.50;;;;;13.93;67.03;100693.63;3028376;22;45499;-84
2022/11/06 14:07:35;;;;;;;;;14.00;11.00;;;;;13.92;66.70;100687.50;3028316;22;45429;-85
2022/11/06 14:08:51;;;;;;;;;9.50;8.75;;;;;13.89;67.02;100685.00;3027776;22;45199;-84
2022/11/06 14:10:02;;;;;;;;;8.75;8.50;;;;;13.89;66.72;100689.44;3027925;22;46102;-85
2022/11/06 14:11:16;;;;;;;;;10.00;8.75;;;;;13.90;66.92;100691.16;3027951;22;45281;-85
2022/11/06 14:12:27;;;;;;;;;13.25;9.75;;;;;13.89;67.22;100690.28;3012126;22;48317;-85
2022/11/06 14:13:38;;;;;;;;;9.50;9.50;;;;;13.90;67.02;100691.16;3016962;22;44636;-85
2022/11/06 14:14:50;;;;;;;;;10.75;8.50;;;;;13.90;66.84;100696.44;3028120;22;45301;-86
2022/11/06 14:16:05;;;;;;;;;7.50;6.25;;;;;13.92;66.94;100690.16;3028403;22;45248;-85
2022/11/06 14:17:15;;;;;;;;;12.50;10.75;;;;;13.94;66.82;100698.00;3027352;22;46348;-85
2022/11/06 14:18:26;;;;;;;;;10.00;8.00;;;;;13.94;67.13;100698.00;3028364;22;44604;-85
2022/11/06 14:19:36;;;;;;;;;7.75;7.00;;;;;13.97;66.79;100697.00;3012231;22;47253;-85
2022/11/06 14:20:47;;;;;;;;;8.50;8.50;;;;;13.98;66.84;100698.69;3001764;22;45230;-84
2022/11/06 14:22:07;;;;;;;;;10.75;9.00;;;;;14.02;66.61;100706.44;3017039;22;46216;-85
2022/11/06 14:23:30;;;;;;;;;5.50;5.00;;;;;14.04;66.35;100703.69;3028650;22;45275;-85
2022/11/06 14:24:41;;;;;;;;;11.00;8.25;;;;;14.02;66.47;100702.91;3028139;22;45641;-85
2022/11/06 14:26:07;;;;;;;;;7.00;6.25;;;;;14.05;66.42;100700.13;3025987;22;44849;-85
2022/11/06 14:27:20;;;;;;;;;13.75;11.50;;;;;14.07;66.47;100706.19;3027198;22;45277;-85
2022/11/06 14:28:42;;;;;;;;;9.25;7.50;;;;;14.07;66.38;100703.56;3011917;22;45226;-85
2022/11/06 14:29:57;;;;;;;;;5.25;4.50;;;;;14.10;66.43;100711.31;3019490;22;45776;-85
2022/11/06 14:31:09;;;;;;;;;10.25;9.00;;;;;14.12;66.43;100708.63;3028355;22;45284;-86
2022/11/06 14:32:22;;;;;;;;;9.50;9.50;;;;;14.15;66.46;100705.81;3027776;22;45511;-85
2022/11/06 14:33:39;;;;;;;;;6.75;6.25;;;;;14.13;66.40;100703.25;3027297;22;45240;-84
2022/11/06 14:34:49;;;;;;;;;10.25;10.25;;;;;14.12;66.03;100696.25;3028372;22;45440;-85
2022/11/06 14:36:13;;;;;;;;;10.50;9.75;;;;;14.15;66.17;100706.66;3026990;22;45213;-85
2022/11/06 14:37:24;;;;;;;;;8.50;7.75;;;;;14.16;66.26;100703.09;3028531;22;45400;-86
2022/11/06 14:38:35;;;;;;;;;11.25;9.00;;;;;14.16;66.33;100708.38;3027938;22;44669;-85
2022/11/06 14:39:54;;;;;;;;;10.50;8.00;;;;;14.20;66.55;100708.25;3012043;22;47166;-85
2022/11/06 14:41:32;;;;;;;;;10.50;8.00;;;;;14.23;66.28;100710.72;3018881;22;45228;-84
2022/11/06 14:42:46;;;;;;;;;5.25;5.25;;;;;14.22;66.43;100707.25;3011785;22;48225;-85